createdAt,value
2023-05-23T00:01:14.689Z,8.90
2023-05-23T00:05:17.998Z,8.55
2023-05-23T00:09:19.855Z,7.28
2023-05-23T00:13:21.651Z,8.52
2023-05-23T00:17:25.426Z,7.95
2023-05-23T00:21:27.403Z,7.87
2023-05-23T00:25:34.059Z,8.18
2023-05-23T00:29:35.791Z,7.57
2023-05-23T00:33:37.564Z,7.53
2023-05-23T00:37:40.759Z,6.20
2023-05-23T00:41:42.522Z,4.82
2023-05-23T00:45:44.404Z,4.65
2023-05-23T00:49:46.514Z,4.30
2023-05-23T00:53:49.231Z,4.37
2023-05-23T00:57:55.437Z,4.20
2023-05-23T01:01:58.237Z,4.18
2023-05-23T01:06:00.055Z,4.00
2023-05-23T01:10:02.324Z,3.72
2023-05-23T01:14:18.930Z,3.97
2023-05-23T01:18:43.804Z,3.78
2023-05-23T01:23:00.263Z,3.90
2023-05-23T01:27:29.898Z,4.50
2023-05-23T01:31:33.563Z,4.03
2023-05-23T01:35:36.858Z,4.30
2023-05-23T01:39:38.666Z,4.10
2023-05-23T01:43:40.497Z,3.87
2023-05-23T01:47:43.378Z,3.72
2023-05-23T01:51:46.321Z,3.65
2023-05-23T01:55:48.544Z,4.25
2023-05-23T01:59:50.914Z,3.72
2023-05-23T02:03:52.983Z,4.07
2023-05-23T02:07:54.684Z,3.97
2023-05-23T02:11:56.393Z,4.40
2023-05-23T02:15:58.118Z,4.65
2023-05-23T02:19:59.870Z,4.82
2023-05-23T02:24:01.642Z,5.12
2023-05-23T02:28:03.436Z,4.97
2023-05-23T02:32:05.450Z,5.05
2023-05-23T02:36:07.299Z,4.93
2023-05-23T02:40:09.474Z,5.12
2023-05-23T02:44:11.194Z,4.70
2023-05-23T02:48:13.263Z,4.90
2023-05-23T02:52:15.070Z,4.43
2023-05-23T02:56:16.825Z,4.37
2023-05-23T03:00:18.782Z,4.40
2023-05-23T03:04:21.396Z,3.95
2023-05-23T03:08:23.383Z,5.05
2023-05-23T03:12:25.092Z,4.80
2023-05-23T03:16:27.067Z,5.43
2023-05-23T03:20:28.861Z,6.28
2023-05-23T03:24:31.864Z,6.40
2023-05-23T03:28:33.672Z,6.03
2023-05-23T03:32:35.923Z,7.32
2023-05-23T03:36:39.229Z,5.85
2023-05-23T03:40:41.047Z,5.93
2023-05-23T03:44:42.768Z,6.03
2023-05-23T03:48:44.700Z,5.70
2023-05-23T03:52:46.915Z,4.95
2023-05-23T03:56:48.617Z,4.72
2023-05-23T04:00:50.348Z,5.85
2023-05-23T04:04:54.068Z,5.00
2023-05-23T04:08:55.855Z,5.53
2023-05-23T04:12:58.796Z,5.10
2023-05-23T04:17:00.987Z,4.85
2023-05-23T04:21:03.196Z,5.62
2023-05-23T04:25:06.338Z,5.00
2023-05-23T04:29:08.061Z,5.53
2023-05-23T04:33:10.187Z,5.32
2023-05-23T04:37:12.051Z,5.28
2023-05-23T04:41:16.305Z,5.35
2023-05-23T04:45:19.469Z,5.15
2023-05-23T04:49:22.750Z,6.03
2023-05-23T04:53:24.553Z,6.68
2023-05-23T04:57:26.765Z,6.55
2023-05-23T05:01:28.552Z,6.40
2023-05-23T05:05:30.301Z,6.57
2023-05-23T05:09:32.118Z,7.60
2023-05-23T05:13:33.857Z,8.10
2023-05-23T05:17:37.281Z,8.73
2023-05-23T05:21:39.130Z,8.05
2023-05-23T05:25:41.276Z,7.37
2023-05-23T05:29:43.165Z,7.97
2023-05-23T05:33:45.905Z,8.40
2023-05-23T05:37:47.904Z,7.80
2023-05-23T05:41:49.674Z,9.45
2023-05-23T05:45:51.505Z,8.75
2023-05-23T05:49:53.287Z,9.40
2023-05-23T05:53:55.225Z,8.68
2023-05-23T05:57:56.926Z,8.68
2023-05-23T06:01:58.671Z,9.40
2023-05-23T06:06:00.775Z,10.70
2023-05-23T06:10:03.673Z,9.60
2023-05-23T06:14:05.621Z,9.07
2023-05-23T06:18:07.799Z,8.35
2023-05-23T06:22:09.556Z,7.78
2023-05-23T06:26:11.357Z,8.13
2023-05-23T06:30:13.741Z,8.13
2023-05-23T06:34:16.817Z,7.97
2023-05-23T06:38:18.539Z,8.02
2023-05-23T06:42:20.292Z,8.65
2023-05-23T06:46:22.112Z,9.07
2023-05-23T06:50:24.128Z,9.00
2023-05-23T06:54:25.888Z,9.38
2023-05-23T06:58:27.674Z,8.05
2023-05-23T07:02:29.497Z,6.75
2023-05-23T07:06:31.498Z,7.35
2023-05-23T07:10:35.123Z,7.75
2023-05-23T07:14:38.197Z,7.62
2023-05-23T07:18:39.976Z,7.87
2023-05-23T07:22:41.762Z,8.13
2023-05-23T07:26:43.717Z,8.45
2023-05-23T07:30:46.087Z,8.88
2023-05-23T07:34:47.939Z,7.03
2023-05-23T07:38:49.792Z,7.55
2023-05-23T07:42:53.138Z,7.90
2023-05-23T07:46:54.947Z,7.47
2023-05-23T07:50:56.782Z,7.82
2023-05-23T07:54:59.475Z,8.55
2023-05-23T07:59:02.616Z,9.10
2023-05-23T08:03:04.484Z,9.35
2023-05-23T08:07:08.319Z,7.87
2023-05-23T08:11:10.393Z,8.40
2023-05-23T08:15:12.265Z,9.63
2023-05-23T08:19:14.167Z,9.90
2023-05-23T08:23:17.373Z,11.52
2023-05-23T08:27:19.156Z,10.10
2023-05-23T08:31:21.817Z,11.57
2023-05-23T08:35:24.308Z,18.85
2023-05-23T08:39:26.044Z,18.20
2023-05-23T08:43:28.859Z,18.95
2023-05-23T08:47:35.147Z,12.80
2023-05-23T08:51:37.918Z,14.30
2023-05-23T08:55:41.200Z,16.77
2023-05-23T08:59:43.525Z,16.37
2023-05-23T09:03:45.254Z,18.33
2023-05-23T09:07:47.924Z,16.52
2023-05-23T09:11:50.489Z,16.08
2023-05-23T09:16:09.740Z,17.90
2023-05-23T09:20:17.125Z,19.25
2023-05-23T09:24:19.661Z,21.40
2023-05-23T09:28:21.403Z,24.90
2023-05-23T09:32:23.171Z,24.63
2023-05-23T09:36:29.647Z,20.23
2023-05-23T09:40:32.919Z,28.30
2023-05-23T09:44:42.419Z,26.83
2023-05-23T09:48:53.784Z,17.75
2023-05-23T09:52:55.570Z,13.57
2023-05-23T09:57:01.185Z,11.75
2023-05-23T10:01:05.117Z,14.65
2023-05-23T10:05:12.720Z,14.55
2023-05-23T10:09:18.973Z,13.65
2023-05-23T10:13:21.268Z,14.73
2023-05-23T10:17:28.606Z,14.45
2023-05-23T10:25:36.926Z,19.83
2023-05-23T10:29:38.944Z,25.98
2023-05-23T10:33:48.076Z,24.37
2023-05-23T10:38:13.716Z,23.42
2023-05-23T10:42:43.016Z,24.45
2023-05-23T10:46:54.876Z,21.02
2023-05-23T10:51:09.423Z,17.27
2023-05-23T10:55:15.654Z,8.20
2023-05-23T10:59:24.351Z,8.60
2023-05-23T11:03:54.106Z,6.07
2023-05-23T11:08:16.438Z,5.93
2023-05-23T11:12:38.101Z,6.05
2023-05-23T11:16:45.452Z,5.72
2023-05-23T11:20:47.737Z,6.43
2023-05-23T11:24:53.273Z,6.32
2023-05-23T11:28:59.129Z,7.10
2023-05-23T11:33:01.118Z,7.78
2023-05-23T11:37:02.973Z,5.75
2023-05-23T11:41:06.300Z,5.70
2023-05-23T11:45:09.529Z,6.62
2023-05-23T11:49:12.752Z,5.05
2023-05-23T11:53:17.488Z,3.80
2023-05-23T11:57:19.334Z,3.87
2023-05-23T12:01:21.299Z,4.30
2023-05-23T12:05:23.096Z,4.57
2023-05-23T12:09:25.544Z,4.43
2023-05-23T12:13:29.939Z,5.05
2023-05-23T12:17:32.989Z,5.47
2023-05-23T12:21:46.617Z,5.35
2023-05-23T12:25:53.101Z,4.62
2023-05-23T12:30:09.590Z,7.27
2023-05-23T12:34:12.925Z,5.07
2023-05-23T12:38:17.649Z,4.47
2023-05-23T12:42:19.426Z,4.15
2023-05-23T12:46:22.351Z,9.57
2023-05-23T12:50:24.418Z,5.22
2023-05-23T12:54:26.218Z,5.78
2023-05-23T12:58:30.956Z,6.62
2023-05-23T13:02:33.261Z,5.05
2023-05-23T13:06:35.128Z,7.07
2023-05-23T13:10:36.889Z,5.10
2023-05-23T13:14:39.067Z,5.97
2023-05-23T13:18:40.897Z,5.30
2023-05-23T13:22:42.938Z,4.10
2023-05-23T13:26:44.730Z,3.80
2023-05-23T13:30:47.309Z,3.15
2023-05-23T13:34:49.423Z,3.37
2023-05-23T13:38:51.373Z,3.25
2023-05-23T13:42:53.103Z,4.18
2023-05-23T13:46:55.320Z,4.93
2023-05-23T13:50:57.283Z,8.95
2023-05-23T13:55:00.410Z,15.48
2023-05-23T13:59:04.742Z,5.00
2023-05-23T14:03:07.296Z,4.85
2023-05-23T14:07:09.076Z,5.68
2023-05-23T14:11:11.189Z,5.12
2023-05-23T14:15:13.679Z,4.18
2023-05-23T14:19:15.521Z,6.15
2023-05-23T14:23:17.282Z,3.75
2023-05-23T14:27:20.037Z,7.05
2023-05-23T14:31:22.201Z,4.35
2023-05-23T14:35:25.568Z,4.05
2023-05-23T14:39:28.887Z,3.22
2023-05-23T14:43:30.832Z,3.72
2023-05-23T14:47:32.639Z,3.50
2023-05-23T14:51:45.384Z,3.30
2023-05-23T14:55:50.603Z,3.45
2023-05-23T14:59:52.516Z,2.83
2023-05-23T15:03:54.377Z,3.78
2023-05-23T15:07:56.437Z,3.30
2023-05-23T15:11:58.421Z,3.47
2023-05-23T15:16:00.415Z,3.20
2023-05-23T15:20:04.467Z,2.60
2023-05-23T15:24:09.142Z,3.47
2023-05-23T15:28:12.763Z,3.22
2023-05-23T15:32:16.048Z,3.15
2023-05-23T15:36:17.902Z,3.05
2023-05-23T15:40:21.521Z,3.83
2023-05-23T15:44:23.329Z,3.17
2023-05-23T15:48:25.090Z,3.45
2023-05-23T15:52:27.046Z,2.72
2023-05-23T15:56:28.763Z,2.72
2023-05-23T16:00:30.595Z,2.78
2023-05-23T16:04:32.952Z,2.90
2023-05-23T16:08:34.710Z,3.45
2023-05-23T16:12:36.716Z,2.67
2023-05-23T16:16:38.604Z,2.67
2023-05-23T16:20:40.632Z,2.85
2023-05-23T16:24:42.400Z,2.87
2023-05-23T16:28:44.258Z,2.60
2023-05-23T16:32:46.106Z,3.30
2023-05-23T16:36:47.940Z,2.97
2023-05-23T16:40:49.672Z,2.75
2023-05-23T16:44:52.053Z,2.65
2023-05-23T16:48:54.227Z,2.60
2023-05-23T16:52:55.991Z,2.58
2023-05-23T16:57:01.486Z,2.83
2023-05-23T17:01:03.296Z,2.12
2023-05-23T17:05:05.450Z,2.25
2023-05-23T17:09:07.227Z,3.00
2023-05-23T17:13:08.971Z,3.05
2023-05-23T17:17:10.719Z,2.42
2023-05-23T17:21:12.559Z,2.47
2023-05-23T17:25:14.310Z,4.87
2023-05-23T17:29:17.202Z,2.22
2023-05-23T17:33:19.635Z,20.65
2023-05-23T17:37:21.616Z,11.82
2023-05-23T17:41:23.990Z,5.03
2023-05-23T17:45:25.691Z,11.68
2023-05-23T17:49:27.432Z,4.22
2023-05-23T17:53:29.322Z,2.65
2023-05-23T17:57:31.332Z,3.17
2023-05-23T18:01:34.105Z,16.08
2023-05-23T18:05:35.901Z,2.47
2023-05-23T18:09:37.891Z,2.53
2023-05-23T18:13:39.624Z,3.00
2023-05-23T18:17:41.610Z,1.75
2023-05-23T18:21:43.551Z,2.70
2023-05-23T18:25:45.285Z,2.50
2023-05-23T18:29:47.059Z,2.17
2023-05-23T18:33:48.827Z,2.70
2023-05-23T18:37:50.834Z,2.10
2023-05-23T18:41:52.821Z,2.08
2023-05-23T18:45:54.674Z,1.98
2023-05-23T18:49:56.483Z,2.33
2023-05-23T18:53:58.446Z,2.20
2023-05-23T18:58:00.438Z,2.20
2023-05-23T19:02:02.442Z,3.80
2023-05-23T19:06:04.635Z,2.37
2023-05-23T19:10:07.023Z,2.12
2023-05-23T19:14:08.773Z,2.03
2023-05-23T19:18:10.565Z,2.33
2023-05-23T19:22:12.727Z,2.28
2023-05-23T19:26:14.598Z,2.00
2023-05-23T19:30:16.640Z,2.87
2023-05-23T19:34:18.571Z,4.03
2023-05-23T19:38:20.600Z,2.70
2023-05-23T19:42:22.350Z,5.10
2023-05-23T19:46:24.152Z,3.45
2023-05-23T19:50:26.017Z,2.58
2023-05-23T19:54:28.091Z,2.62
2023-05-23T19:58:29.927Z,2.33
2023-05-23T20:02:31.837Z,8.18
2023-05-23T20:06:33.944Z,4.10
2023-05-23T20:10:35.683Z,2.25
2023-05-23T20:14:37.593Z,2.50
2023-05-23T20:18:39.354Z,2.35
2023-05-23T20:22:41.148Z,2.10
2023-05-23T20:26:42.936Z,3.37
2023-05-23T20:30:44.819Z,3.08
2023-05-23T20:34:46.740Z,2.20
2023-05-23T20:38:48.477Z,2.05
2023-05-23T20:42:50.321Z,2.28
2023-05-23T20:46:52.165Z,5.95
2023-05-23T20:50:54.374Z,2.00
2023-05-23T20:54:56.100Z,2.15
2023-05-23T20:59:00.240Z,2.30
2023-05-23T21:03:02.420Z,2.92
2023-05-23T21:07:04.496Z,2.58
2023-05-23T21:11:06.199Z,1.85
2023-05-23T21:15:09.736Z,2.65
2023-05-23T21:19:11.513Z,2.47
2023-05-23T21:23:13.308Z,2.03
2023-05-23T21:27:15.209Z,2.28
2023-05-23T21:31:24.024Z,2.45
2023-05-23T21:35:31.662Z,2.28
2023-05-23T21:39:46.985Z,2.45
2023-05-23T21:43:52.859Z,2.97
2023-05-23T21:47:54.786Z,3.15
2023-05-23T21:51:56.537Z,1.87
2023-05-23T21:55:58.274Z,2.20
2023-05-23T21:59:59.988Z,1.98
2023-05-23T22:04:02.068Z,2.72
2023-05-23T22:08:04.032Z,2.35
2023-05-23T22:12:06.693Z,2.25
2023-05-23T22:16:08.759Z,2.33
2023-05-23T22:20:14.356Z,2.10
2023-05-23T22:24:16.298Z,2.80
2023-05-23T22:28:18.063Z,2.45
2023-05-23T22:32:19.931Z,3.03
2023-05-23T22:36:24.632Z,1.95
2023-05-23T22:40:26.399Z,2.67
2023-05-23T22:44:28.252Z,2.30
2023-05-23T22:48:40.860Z,2.62
2023-05-23T22:52:43.247Z,2.30
2023-05-23T22:56:45.085Z,2.45
2023-05-23T23:00:46.973Z,2.45
2023-05-23T23:04:48.922Z,2.53
2023-05-23T23:08:51.825Z,2.40
2023-05-23T23:12:53.666Z,2.35
2023-05-23T23:16:55.932Z,3.08
2023-05-23T23:20:57.902Z,1.90
2023-05-23T23:25:00.148Z,1.90
2023-05-23T23:29:03.132Z,2.22
2023-05-23T23:33:05.061Z,2.30
2023-05-23T23:37:07.000Z,1.90
2023-05-23T23:41:08.884Z,1.77
2023-05-23T23:45:11.259Z,2.20
2023-05-23T23:49:15.223Z,2.03
2023-05-23T23:53:17.994Z,2.03
2023-05-23T23:57:20.198Z,1.73
